createdAt,value
2022-08-22T00:01:38.066Z,100.00
2022-08-22T00:06:52.704Z,100.00
2022-08-22T00:17:49.347Z,100.00
2022-08-22T00:22:52.550Z,100.00
2022-08-22T00:27:54.909Z,99.39
2022-08-22T00:32:53.756Z,99.12
2022-08-22T00:37:54.772Z,100.00
2022-08-22T00:43:21.253Z,99.79
2022-08-22T00:48:36.647Z,100.00
2022-08-22T00:53:51.334Z,99.72
2022-08-22T00:59:22.989Z,100.00
2022-08-22T01:04:49.856Z,100.00
2022-08-22T01:10:01.452Z,100.00
2022-08-22T01:14:59.473Z,100.00
2022-08-22T01:20:40.468Z,100.00
2022-08-22T01:25:57.344Z,99.21
2022-08-22T01:31:35.011Z,100.00
2022-08-22T01:36:55.758Z,99.48
2022-08-22T01:42:32.930Z,100.00
2022-08-22T01:47:36.634Z,100.00
2022-08-22T01:52:38.766Z,100.00
2022-08-22T01:57:32.181Z,100.00
2022-08-22T02:02:44.742Z,99.78
2022-08-22T02:07:50.117Z,98.42
2022-08-22T02:12:49.169Z,97.84
2022-08-22T02:18:01.100Z,98.00
2022-08-22T02:23:01.869Z,99.42
2022-08-22T02:28:02.569Z,100.00
2022-08-22T02:33:04.395Z,100.00
2022-08-22T02:38:13.394Z,100.00
2022-08-22T02:43:18.255Z,100.00
2022-08-22T02:48:21.335Z,100.00
2022-08-22T02:53:24.712Z,100.00
2022-08-22T02:58:36.993Z,99.39
2022-08-22T03:03:37.375Z,99.44
2022-08-22T03:08:38.431Z,99.02
2022-08-22T03:13:45.936Z,99.08
2022-08-22T03:18:50.008Z,99.34
2022-08-22T03:23:53.760Z,99.09
2022-08-22T03:29:03.082Z,99.27
2022-08-22T03:34:26.727Z,99.00
2022-08-22T03:39:49.296Z,98.75
2022-08-22T03:45:09.412Z,98.64
2022-08-22T03:50:34.483Z,98.48
2022-08-22T03:55:47.767Z,98.89
2022-08-22T04:01:16.117Z,99.48
2022-08-22T04:06:37.976Z,100.00
2022-08-22T04:12:13.848Z,100.00
2022-08-22T04:17:32.361Z,100.00
2022-08-22T04:22:50.984Z,100.00
2022-08-22T04:27:56.039Z,100.00
2022-08-22T04:32:58.004Z,99.18
2022-08-22T04:37:58.833Z,99.55
2022-08-22T04:42:58.330Z,100.00
2022-08-22T04:47:59.457Z,99.78
2022-08-22T04:53:11.401Z,99.56
2022-08-22T04:58:19.070Z,99.88
2022-08-22T05:03:18.020Z,99.87
2022-08-22T05:08:15.195Z,99.92
2022-08-22T05:13:14.407Z,100.00
2022-08-22T05:18:10.795Z,98.24
2022-08-22T05:23:17.528Z,99.31
2022-08-22T05:28:16.928Z,98.84
2022-08-22T05:33:24.182Z,98.89
2022-08-22T05:38:23.634Z,98.06
2022-08-22T05:43:21.251Z,96.95
2022-08-22T05:48:26.049Z,95.95
2022-08-22T05:53:33.132Z,94.41
2022-08-22T05:58:49.745Z,92.35
2022-08-22T06:03:59.962Z,92.19
2022-08-22T06:09:06.055Z,91.85
2022-08-22T06:14:13.004Z,92.20
2022-08-22T06:19:19.500Z,93.01
2022-08-22T06:24:29.766Z,92.07
2022-08-22T06:29:33.897Z,92.07
2022-08-22T06:34:35.974Z,92.67
2022-08-22T06:39:37.307Z,92.36
2022-08-22T06:44:51.969Z,90.57
2022-08-22T06:50:01.779Z,90.40
2022-08-22T06:55:33.471Z,87.81
2022-08-22T07:00:52.413Z,85.78
2022-08-22T07:05:59.280Z,85.11
2022-08-22T07:11:00.037Z,83.70
2022-08-22T07:16:02.475Z,84.25
2022-08-22T07:21:00.446Z,82.83
2022-08-22T07:26:02.934Z,83.48
2022-08-22T07:30:59.277Z,82.72
2022-08-22T07:36:16.334Z,81.07
2022-08-22T07:41:20.294Z,81.68
2022-08-22T07:46:34.464Z,81.30
2022-08-22T07:51:35.909Z,79.95
2022-08-22T07:56:36.571Z,80.08
2022-08-22T08:01:31.371Z,79.58
2022-08-22T08:07:41.570Z,77.59
2022-08-22T08:13:06.674Z,74.33
2022-08-22T08:20:27.418Z,72.08
2022-08-22T08:24:40.537Z,70.82
2022-08-22T08:29:39.185Z,71.33
2022-08-22T08:40:37.751Z,65.69
2022-08-22T08:46:02.848Z,61.99
2022-08-22T08:51:18.404Z,60.22
2022-08-22T08:56:33.116Z,58.09
2022-08-22T09:01:54.023Z,55.82
2022-08-22T09:07:19.921Z,56.04
2022-08-22T09:12:32.512Z,58.69
2022-08-22T09:18:07.561Z,57.14
2022-08-22T09:23:53.436Z,57.51
2022-08-22T09:29:02.461Z,54.36
2022-08-22T09:34:08.325Z,54.80
2022-08-22T09:39:16.072Z,53.70
2022-08-22T09:44:25.474Z,53.10
2022-08-22T10:02:45.030Z,53.79
2022-08-22T10:08:19.732Z,51.62
2022-08-22T10:26:22.822Z,49.59
2022-08-22T10:31:46.053Z,49.66
2022-08-22T10:42:41.690Z,49.84
2022-08-22T10:48:57.589Z,49.03
2022-08-22T10:54:43.496Z,48.20
2022-08-22T11:06:22.812Z,45.30
2022-08-22T11:11:48.258Z,46.29
2022-08-22T11:17:40.631Z,45.98
2022-08-22T11:23:34.984Z,43.21
2022-08-22T11:29:33.161Z,43.21
2022-08-22T11:34:49.069Z,41.50
2022-08-22T11:40:11.876Z,38.75
2022-08-22T11:45:22.281Z,35.85
2022-08-22T11:50:29.689Z,34.69
2022-08-22T11:55:44.188Z,32.32
2022-08-22T12:01:52.960Z,32.98
2022-08-22T12:07:13.545Z,33.52
2022-08-22T12:13:12.064Z,32.18
2022-08-22T12:19:00.087Z,30.60
2022-08-22T12:24:20.979Z,29.85
2022-08-22T12:29:45.107Z,30.38
2022-08-22T12:35:14.096Z,29.78
2022-08-22T12:40:45.862Z,29.35
2022-08-22T12:47:11.786Z,27.66
2022-08-22T12:52:33.236Z,29.05
2022-08-22T12:57:54.009Z,28.58
2022-08-22T13:08:43.824Z,28.21
2022-08-22T13:13:59.603Z,29.12
2022-08-22T13:19:07.579Z,28.08
2022-08-22T13:24:16.987Z,28.19
2022-08-22T13:29:42.710Z,28.55
2022-08-22T13:34:53.355Z,28.76
2022-08-22T13:40:03.914Z,29.05
2022-08-22T13:45:07.319Z,27.95
2022-08-22T13:50:12.194Z,28.06
2022-08-22T13:55:34.161Z,28.06
2022-08-22T14:01:21.759Z,27.80
2022-08-22T14:06:53.739Z,27.63
2022-08-22T14:18:47.616Z,29.70
2022-08-22T14:23:50.788Z,31.75
2022-08-22T14:29:02.510Z,30.86
2022-08-22T14:34:03.615Z,32.14
2022-08-22T14:39:02.859Z,33.87
2022-08-22T14:44:09.986Z,36.55
2022-08-22T14:49:24.933Z,37.72
2022-08-22T14:54:28.968Z,38.43
2022-08-22T15:00:00.303Z,39.69
2022-08-22T15:05:01.625Z,40.91
2022-08-22T15:10:03.540Z,42.02
2022-08-22T15:15:03.707Z,44.05
2022-08-22T15:20:12.209Z,44.39
2022-08-22T15:25:13.185Z,44.67
2022-08-22T15:30:20.431Z,45.20
2022-08-22T15:36:15.911Z,44.18
2022-08-22T15:41:49.044Z,44.42
2022-08-22T15:47:24.144Z,46.10
2022-08-22T15:52:28.693Z,44.90
2022-08-22T15:57:29.665Z,47.24
2022-08-22T16:02:35.038Z,46.50
2022-08-22T16:07:51.558Z,46.99
2022-08-22T16:13:50.267Z,48.52
2022-08-22T16:19:37.199Z,49.03
2022-08-22T16:25:51.849Z,49.57
2022-08-22T16:44:23.759Z,51.45
2022-08-22T16:50:17.029Z,51.40
2022-08-22T16:56:11.544Z,51.13
2022-08-22T17:13:42.399Z,51.63
2022-08-22T17:19:30.378Z,51.94
2022-08-22T17:39:01.279Z,55.59
2022-08-22T17:46:01.630Z,55.99
2022-08-22T17:51:13.611Z,55.74
2022-08-22T18:23:50.711Z,58.71
2022-08-22T18:35:54.654Z,60.91
2022-08-22T18:41:27.624Z,61.99
2022-08-22T18:52:40.937Z,63.41
2022-08-22T18:58:34.516Z,64.19
2022-08-22T19:10:56.659Z,65.25
2022-08-22T19:16:42.011Z,66.51
2022-08-22T19:22:16.258Z,66.95
2022-08-22T19:27:33.248Z,66.58
2022-08-22T19:33:08.136Z,66.98
2022-08-22T19:38:05.407Z,67.91
2022-08-22T19:43:02.409Z,68.13
2022-08-22T19:48:13.617Z,68.63
2022-08-22T19:53:38.995Z,68.96
2022-08-22T19:58:52.507Z,69.65
2022-08-22T20:04:03.132Z,70.41
2022-08-22T20:09:21.898Z,70.67
2022-08-22T20:14:30.061Z,71.25
2022-08-22T20:19:38.237Z,71.91
2022-08-22T20:24:40.431Z,72.21
2022-08-22T20:29:40.890Z,72.54
2022-08-22T20:34:43.368Z,72.63
2022-08-22T20:39:49.953Z,72.76
2022-08-22T20:44:56.489Z,73.58
2022-08-22T20:49:57.447Z,73.89
2022-08-22T20:55:01.891Z,74.11
2022-08-22T20:59:59.834Z,74.16
2022-08-22T21:05:02.686Z,74.82
2022-08-22T21:10:25.426Z,74.79
2022-08-22T21:15:32.888Z,74.45
2022-08-22T21:20:26.378Z,74.86
2022-08-22T21:25:19.799Z,74.91
2022-08-22T21:30:26.293Z,74.77
2022-08-22T21:35:26.654Z,75.60
2022-08-22T21:40:23.202Z,76.21
2022-08-22T21:45:32.911Z,75.50
2022-08-22T21:50:34.766Z,76.96
2022-08-22T21:55:30.194Z,76.96
2022-08-22T22:00:49.984Z,75.72
2022-08-22T22:05:46.118Z,76.11
2022-08-22T22:10:43.406Z,75.82
2022-08-22T22:15:42.519Z,75.85
2022-08-22T22:20:37.515Z,76.22
2022-08-22T22:25:39.652Z,76.33
2022-08-22T22:30:37.354Z,76.16
2022-08-22T22:35:31.534Z,76.46
2022-08-22T22:40:28.617Z,77.25
2022-08-22T22:45:22.917Z,77.43
2022-08-22T22:50:19.407Z,77.52
2022-08-22T22:55:12.952Z,77.84
2022-08-22T23:00:20.059Z,78.12
2022-08-22T23:05:16.072Z,78.64
2022-08-22T23:10:17.669Z,79.10
2022-08-22T23:15:14.722Z,79.21
2022-08-22T23:20:10.205Z,79.54
2022-08-22T23:25:03.637Z,79.54
2022-08-22T23:30:05.932Z,79.87
2022-08-22T23:34:59.609Z,80.43
2022-08-22T23:39:56.600Z,80.91
2022-08-22T23:44:50.161Z,80.86
2022-08-22T23:49:44.336Z,81.32
2022-08-22T23:54:40.642Z,81.09
2022-08-22T23:59:38.396Z,80.90
